Latest Coastal Weather Observations for Wyndham Airport

IDD60701

Issued at 8:11 pm CST Saturday 22 February 2020 (issued every 10 minutes, with the page automatically refreshed every 10 minutes)

About coastal observations | Map of coastal stations | Coastal observations for NT | Marine services | Other Formats
Station Details ID: 001006 Name: WYNDHAM AERO Lat: -15.51 Lon: 128.15 Height: 3.8 m
Data from the previous 72 hours. | See also: Recent months at Wyndham Airport
Date/Time
CST
Wind Sea
Height
m
Swell Vis
km
Cloud Weather Temp
°C
Press
hPa
Rain since
9am
mm
Dir  Spd
kts
Gust
kts
Height
m
Period
s
Dir
22/08:00pm SE 7 9 - - - - - - - 33.7 1005.1 0.0
22/07:30pm ENE 6 6 - - - - - - - 33.9 1004.6 0.0
22/07:00pm ENE 7 8 - - - - - - - 35.5 1004.1 0.0
22/06:30pm ESE 8 9 - - - - - - - 37.5 1003.9 0.0
22/06:00pm ESE 5 6 - - - - - - - 38.7 1003.9 0.0
22/05:30pm E 5 7 - - - - - - - 39.5 1003.8 0.0
22/05:00pm ESE 7 11 - - - - - - - 39.2 1004.0 0.0
22/04:30pm SE 3 7 - - - - - - - 39.5 1004.3 0.0
22/04:00pm ESE 6 7 - - - - - - - 39.4 1004.5 0.0
22/03:30pm ENE 5 9 - - - - - - - 39.1 1004.9 0.0
22/03:00pm ESE 6 8 - - - - - - - 39.1 1005.2 0.0
22/02:30pm ESE 5 8 - - - - - - - 39.2 1005.8 0.0
22/02:00pm ESE 8 12 - - - - - - - 38.9 1006.1 0.0
22/01:30pm SSE 8 11 - - - - - - - 38.0 1006.5 0.0
22/01:00pm S 10 17 - - - - - - - 37.8 1007.0 0.0
22/12:30pm S 8 12 - - - - - - - 37.4 1007.5 0.0
22/12:00pm S 8 15 - - - - - - - 36.2 1008.0 0.0
22/11:30am S 8 13 - - - - - - - 35.8 1008.2 0.0
22/11:00am SSW 7 12 - - - - - - - 35.2 1008.6 0.0
22/10:30am SW 8 13 - - - - - - - 33.6 1008.8 0.0
22/10:00am SW 9 12 - - - - - - - 32.9 1008.8 0.0
22/09:30am WSW 13 17 - - - - - - - 32.2 1008.8 0.0
22/09:00am WSW 11 13 - - - - - - - 31.7 1008.6 0.0
22/08:30am WSW 11 14 - - - - - - - 31.3 1008.2 0.0
22/08:00am W 9 11 - - - - - - - 30.5 1007.9 0.0
22/07:30am W 11 14 - - - - - - - 29.6 1007.7 0.0
22/07:00am W 12 15 - - - - - - - 29.6 1007.3 0.0
22/06:30am W 13 16 - - - - - - - 29.6 1007.2 0.0
22/06:00am WSW 9 12 - - - - - - - 29.6 1007.2 0.0
22/05:30am WSW 7 8 - - - - - - - 29.6 1007.0 0.0
22/05:00am W 7 9 - - - - - - - 30.4 1006.9 0.0
22/04:30am W 7 9 - - - - - - - 30.7 1006.9 0.0
22/04:00am WNW 9 10 - - - - - - - 30.9 1007.0 0.0
22/03:30am WNW 10 13 - - - - - - - 31.1 1007.1 0.0
22/03:00am W 10 12 - - - - - - - 31.6 1007.2 0.0
22/02:30am WNW 8 10 - - - - - - - 31.3 1007.5 0.0
22/02:00am WNW 7 8 - - - - - - - 31.4 1007.8 0.0
22/01:30am NW 6 7 - - - - - - - 31.4 1007.9 0.0
22/01:00am NW 7 9 - - - - - - - 31.7 1008.1 0.0
22/12:30am NW 8 11 - - - - - - - 32.0 1008.3 0.0
22/12:00am NNW 5 7 - - - - - - - 31.9 1008.2 0.0
 
Date/Time
CST
Wind Sea
Height
m
Swell Vis
km
Cloud Weather Temp
°C
Press
hPa
Rain since
9am
mm
Dir  Spd
kts
Gust
kts
Height
m
Period
s
Dir
21/11:30pm N 5 6 - - - - - - - 32.2 1008.2 0.0
21/11:00pm N 4 6 - - - - - - - 32.2 1008.1 0.0
21/10:30pm N 4 5 - - - - - - - 32.5 1007.9 0.0
21/10:00pm CALM 0 0 - - - - - - - 32.2 1007.9 0.0
21/09:30pm N 3 4 - - - - - - - 32.6 1007.6 0.0
21/09:00pm N 3 4 - - - - - - - 33.2 1007.3 0.0
21/08:30pm N 3 4 - - - - - - - 33.8 1006.9 0.0
21/08:00pm N 4 5 - - - - - - - 33.7 1006.4 0.0
21/07:30pm N 5 5 - - - - - - - 34.5 1005.9 0.0
21/07:00pm NE 5 5 - - - - - - - 35.5 1005.3 0.0
21/06:30pm ENE 5 7 - - - - - - - 37.1 1005.1 0.0
21/06:00pm E 5 7 - - - - - - - 37.7 1004.6 0.0
21/05:30pm E 4 6 - - - - - - - 38.2 1004.5 0.0
21/05:00pm ESE 4 8 - - - - - - - 37.5 1004.9 0.0
21/04:30pm ESE 4 6 - - - - - - - 37.6 1005.2 0.0
21/04:00pm ESE 4 5 - - - - - - - 37.6 1005.6 0.0
21/03:30pm SSE 6 9 - - - - - - - 37.8 1006.0 0.0
21/03:00pm S 6 10 - - - - - - - 37.0 1006.3 0.0
21/02:30pm S 6 11 - - - - - - - 36.4 1006.7 0.0
21/02:00pm S 7 14 - - - - - - - 35.7 1007.3 0.0
21/01:30pm WSW 8 11 - - - - - - - 34.7 1007.6 0.0
21/01:00pm SW 5 9 - - - - - - - 33.7 1008.2 0.0
21/12:30pm SW 6 9 - - - - - - - 32.8 1008.7 0.0
21/12:00pm SW 6 11 - - - - - - - 31.8 1009.1 0.0
21/11:30am WSW 7 11 - - - - - - - 31.2 1009.5 0.0
21/11:00am WSW 9 13 - - - - - - - 30.9 1009.8 0.0
21/10:30am WSW 11 16 - - - - - - - 30.0 1010.1 3.4
21/10:00am SW 12 15 - - - - - - - 29.8 1010.0 3.4
21/09:30am SW 12 15 - - - - - - - 29.5 1010.0 3.4
21/09:00am W 5 7 - - - - - - - 28.5 1010.1 3.4
21/08:30am NW 5 6 - - - - - - - 28.0 1010.1 3.4
21/08:00am WNW 5 6 - - - - - - - 27.1 1010.0 3.4
21/07:30am ENE 3 4 - - - - - - - 26.5 1010.1 3.4
21/07:00am N 4 5 - - - - - - - 26.2 1010.3 3.4
21/06:30am NW 4 5 - - - - - - - 26.2 1009.3 3.4
21/06:00am NW 5 7 - - - - - - - 26.4 1009.0 3.4
21/05:30am NW 7 9 - - - - - - - 26.6 1008.9 3.4
21/05:00am NW 10 13 - - - - - - - 26.9 1008.7 3.4
21/04:30am NW 13 16 - - - - - - - 27.3 1008.7 3.4
21/04:00am NW 10 15 - - - - - - - 27.3 1008.4 3.4
21/03:30am NW 10 13 - - - - - - - 27.3 1008.7 3.4
21/03:00am NNW 11 14 - - - - - - - 27.3 1008.7 3.4
21/02:30am NNW 6 10 - - - - - - - 27.8 1009.8 3.2
21/02:00am W 6 8 - - - - - - - 27.7 1010.0 3.2
21/01:30am NNE 13 19 - - - - - - - 28.4 1010.1 0.6
21/01:00am NNE 17 27 - - - - - - - 28.9 1009.6 0.6
21/12:52am NNE 16 27 - - - - - - - 29.0 1009.4 0.6
21/12:30am N 9 14 - - - - - - - 29.4 1009.1 0.6
21/12:00am N 10 13 - - - - - - - 29.1 1008.6 0.6
 
Date/Time
CST
Wind Sea
Height
m
Swell Vis
km
Cloud Weather Temp
°C
Press
hPa
Rain since
9am
mm
Dir  Spd
kts
Gust
kts
Height
m
Period
s
Dir
20/11:30pm NNW 8 11 - - - - - - - 29.1 1008.5 0.6
20/11:00pm N 12 16 - - - - - - - 29.1 1008.3 0.6
20/10:30pm N 12 16 - - - - - - Recent precip. 28.7 1007.9 0.6
20/10:00pm NNW 9 11 - - - - - - - 32.4 1007.6 0.0
20/09:30pm W 11 13 - - - - - - - 33.1 1006.6 0.0
20/09:00pm WNW 9 11 - - - - - - - 33.3 1006.0 0.0
20/08:30pm WNW 7 9 - - - - - - - 33.2 1005.1 0.0
20/08:00pm NW 13 17 - - - - - - - 34.1 1004.4 0.0
20/07:30pm NNW 8 11 - - - - - - - 34.5 1004.0 0.0
20/07:00pm W 4 6 - - - - - - - 36.2 1003.6 0.0
20/06:30pm SW 4 6 - - - - - - - 37.6 1002.8 0.0
20/06:00pm WNW 3 6 - - - - - - - 39.0 1002.4 0.0
20/05:30pm SE 5 7 - - - - - - - 38.5 1002.3 0.0
20/05:00pm SSW 4 7 - - - - - - - 38.8 1002.4 0.0
20/04:30pm W 7 10 - - - - - - - 38.8 1002.5 0.0
20/04:00pm SW 8 13 - - - - - - - 38.4 1002.9 0.0
20/03:30pm SSW 5 10 - - - - - - - 38.0 1003.6 0.0
20/03:00pm WSW 4 9 - - - - - - - 38.2 1004.3 0.0
20/02:30pm SW 7 11 - - - - - - - 37.7 1004.9 0.0
20/02:00pm SW 7 12 - - - - - - - 37.1 1005.2 0.0
20/01:30pm SW 8 15 - - - - - - - 36.6 1005.7 0.0
20/01:00pm WSW 9 13 - - - - - - - 35.3 1006.0 0.0
20/12:30pm WSW 6 9 - - - - - - - 34.6 1006.8 0.0
20/12:00pm SW 7 11 - - - - - - - 34.1 1007.1 0.0
20/11:30am WSW 9 14 - - - - - - - 33.6 1007.2 0.0
20/11:00am WSW 10 14 - - - - - - - 33.8 1007.7 0.0
20/10:30am W 10 12 - - - - - - - 33.3 1007.8 0.0
20/10:00am W 9 11 - - - - - - - 32.4 1007.9 0.0
20/09:30am W 9 11 - - - - - - - 31.9 1008.0 0.0
20/09:00am WNW 9 11 - - - - - - - 31.2 1007.7 0.0
20/08:30am W 8 11 - - - - - - - 30.7 1007.2 0.0
20/08:00am W 7 9 - - - - - - - 29.9 1006.8 0.0
20/07:30am WNW 7 9 - - - - - - - 29.0 1006.2 0.0
20/07:00am W 9 11 - - - - - - - 29.3 1005.9 0.0
20/06:30am W 8 9 - - - - - - - 29.6 1005.6 0.0
20/06:00am WSW 9 11 - - - - - - - 29.7 1005.4 0.0
20/05:30am WSW 8 11 - - - - - - - 29.9 1005.3 0.0
20/05:00am WNW 7 8 - - - - - - - 29.9 1005.1 0.0
20/04:30am WNW 6 7 - - - - - - - 29.9 1004.7 0.0
20/04:00am W 5 7 - - - - - - - 30.2 1004.7 0.0
20/03:30am W 7 10 - - - - - - - 30.5 1004.5 0.0
20/03:00am WNW 11 13 - - - - - - - 31.1 1004.4 0.0
20/02:30am W 9 11 - - - - - - - 31.5 1004.8 0.0
20/02:00am WNW 5 8 - - - - - - - 31.2 1005.1 0.0
20/01:30am NW 5 6 - - - - - - - 30.6 1005.4 0.0
20/01:00am NW 6 7 - - - - - - - 30.7 1005.7 0.0
20/12:30am NW 4 6 - - - - - - - 31.2 1006.1 0.0
20/12:00am CALM 0 3 - - - - - - - 31.2 1006.3 0.0
 
Date/Time
CST
Wind Sea
Height
m
Swell Vis
km
Cloud Weather Temp
°C
Press
hPa
Rain since
9am
mm
Dir  Spd
kts
Gust
kts
Height
m
Period
s
Dir
19/11:30pm NW 6 7 - - - - - - - 31.5 1006.2 0.0
19/11:00pm N 3 3 - - - - - - - 31.4 1006.1 0.0
19/10:30pm N 4 5 - - - - - - - 31.8 1005.7 0.0
19/10:00pm N 5 7 - - - - - - - 31.9 1005.4 0.0

Other formats

Comma delimited format used in spreadsheet applications
http://www.bom.gov.au/fwo/IDD60701/IDD60701.95214.axf

JavaScript Object Notation format (JSON) in row-major order
http://www.bom.gov.au/fwo/IDD60701/IDD60701.95214.json

Data quality

Most of these data are generated automatically and are frequently updated. Quality checks on data are not normally performed. It is possible for incorrect values to appear. Refer to information at About Latest Weather Observations and please check the disclaimer before using these data.